Time;durP1;ratioP1;P1;durP2;ratioP2;P2;SDS_P1;SDS_P2;PMS_P1;PMS_P2;Temp;Humidity;BMP_temperature;BMP_pressure;BME280_temperature;BME280_humidity;BME280_pressure;Samples;Min_cycle;Max_cycle;Signal;HPM_P1;HPM_P2
2024/01/27 00:01:04;;;;;;;2.80;2.70;;;;;;;3.66;94.50;100628.75;5045254;28;20061;-63
2024/01/27 00:03:30;;;;;;;0.40;0.40;;;;;;;3.66;94.42;100631.31;5045089;28;20025;-64
2024/01/27 00:05:55;;;;;;;0.40;0.40;;;;;;;3.66;94.77;100636.44;5058511;23;20056;-65
2024/01/27 00:08:21;;;;;;;0.50;0.50;;;;;;;3.62;94.81;100640.63;5065221;28;20039;-64
2024/01/27 00:10:47;;;;;;;0.50;0.50;;;;;;;3.60;95.44;100642.28;5071711;23;20409;-64
2024/01/27 00:13:13;;;;;;;0.40;0.40;;;;;;;3.65;95.17;100650.09;5077611;23;20076;-63
2024/01/27 00:15:38;;;;;;;2.05;1.95;;;;;;;3.60;95.18;100647.41;5064865;28;20045;-64
2024/01/27 00:18:04;;;;;;;0.40;0.40;;;;;;;3.54;95.08;100658.41;5064930;28;20021;-64
2024/01/27 00:20:29;;;;;;;0.40;0.40;;;;;;;3.55;95.04;100660.16;5064875;28;20040;-64
2024/01/27 00:22:54;;;;;;;0.40;0.40;;;;;;;3.53;95.58;100676.34;5047096;28;20021;-64
2024/01/27 00:25:20;;;;;;;0.40;0.40;;;;;;;3.52;95.17;100680.59;5064989;28;20053;-66
2024/01/27 00:27:45;;;;;;;0.47;0.47;;;;;;;3.54;95.30;100673.81;5064958;28;20028;-65
2024/01/27 00:30:11;;;;;;;0.40;0.40;;;;;;;3.49;95.30;100692.50;5065150;28;20025;-65
2024/01/27 00:32:37;;;;;;;0.50;0.50;;;;;;;3.47;95.28;100677.94;5064770;28;20025;-64
2024/01/27 00:35:03;;;;;;;0.47;0.47;;;;;;;3.49;95.51;100684.78;5064771;28;20021;-65
2024/01/27 00:37:28;;;;;;;0.50;0.50;;;;;;;3.41;95.48;100690.59;5071255;23;20518;-66
2024/01/27 00:39:53;;;;;;;0.60;0.60;;;;;;;3.49;95.56;100695.06;5065061;28;20479;-65
2024/01/27 00:42:23;;;;;;;0.40;0.40;;;;;;;3.42;95.32;100692.34;5054918;23;20044;-65
2024/01/27 00:44:49;;;;;;;0.43;0.43;;;;;;;3.47;95.60;100712.97;5063634;28;20439;-64
2024/01/27 00:47:14;;;;;;;1.08;1.02;;;;;;;3.46;95.59;100717.28;5064532;28;20013;-64
2024/01/27 00:49:40;;;;;;;0.50;0.50;;;;;;;3.50;95.48;100728.47;5064343;28;20033;-64
2024/01/27 00:52:05;;;;;;;0.50;0.50;;;;;;;3.46;95.53;100732.69;5064761;28;20032;-64
2024/01/27 00:54:30;;;;;;;0.40;0.40;;;;;;;3.55;95.25;100738.84;5046687;28;20029;-63
2024/01/27 00:56:56;;;;;;;0.40;0.40;;;;;;;3.50;95.07;100737.88;5064714;28;20017;-63
2024/01/27 00:59:21;;;;;;;0.50;0.50;;;;;;;3.46;95.46;100726.66;5064572;28;20104;-63
2024/01/27 01:01:47;;;;;;;0.50;0.50;;;;;;;3.45;94.30;100736.06;5064230;28;20028;-64
2024/01/27 01:04:13;;;;;;;0.40;0.40;;;;;;;3.46;94.28;100744.63;5064469;28;20029;-63
2024/01/27 01:06:39;;;;;;;0.40;0.40;;;;;;;3.49;94.25;100757.53;5064560;28;20396;-63
2024/01/27 01:09:05;;;;;;;0.45;0.45;;;;;;;3.43;94.52;100748.00;5071636;23;20049;-65
2024/01/27 01:11:30;;;;;;;0.40;0.40;;;;;;;3.36;92.93;100761.47;4979754;23;2372936;-64
2024/01/27 01:13:56;;;;;;;0.60;0.60;;;;;;;3.42;92.54;100779.59;5071163;23;20072;-64
2024/01/27 01:16:21;;;;;;;0.40;0.40;;;;;;;3.40;93.59;100783.84;5068475;28;20017;-64
2024/01/27 01:18:46;;;;;;;0.50;0.50;;;;;;;3.41;93.03;100794.97;5050481;28;20029;-63
2024/01/27 01:21:12;;;;;;;0.40;0.40;;;;;;;3.44;93.18;100793.38;5050559;28;20017;-63
2024/01/27 01:23:38;;;;;;;0.40;0.40;;;;;;;3.48;93.91;100796.91;5068488;28;20056;-63
2024/01/27 01:26:03;;;;;;;3.28;2.97;;;;;;;3.45;93.82;100794.25;5050470;28;20044;-63
2024/01/27 01:28:29;;;;;;;0.50;0.50;;;;;;;3.52;93.72;100815.78;5068256;28;20108;-63
2024/01/27 01:30:54;;;;;;;0.50;0.50;;;;;;;3.50;94.17;100815.75;5068060;28;20024;-63
2024/01/27 01:33:19;;;;;;;0.40;0.40;;;;;;;3.49;94.60;100808.00;5068234;28;20559;-63
2024/01/27 01:35:45;;;;;;;0.40;0.40;;;;;;;3.46;94.09;100816.50;5068025;28;20088;-63
2024/01/27 01:38:11;;;;;;;10.95;2.15;;;;;;;3.40;93.88;100813.78;5050173;28;20028;-63
2024/01/27 01:40:36;;;;;;;0.50;0.50;;;;;;;3.38;93.79;100821.44;5074487;23;20060;-65
2024/01/27 01:43:04;;;;;;;0.50;0.50;;;;;;;3.43;93.85;100832.72;5067598;28;20099;-64
2024/01/27 01:45:29;;;;;;;0.50;0.50;;;;;;;3.39;94.02;100827.41;5068097;28;20100;-64
2024/01/27 01:47:55;;;;;;;0.50;0.50;;;;;;;3.39;94.41;100847.94;5074505;23;20053;-63
2024/01/27 01:50:21;;;;;;;0.50;0.50;;;;;;;3.42;93.93;100859.19;5067398;28;20029;-63
2024/01/27 01:52:48;;;;;;;0.50;0.50;;;;;;;3.38;93.80;100867.63;5067938;28;20041;-63
2024/01/27 01:55:14;;;;;;;0.40;0.40;;;;;;;3.36;93.85;100859.00;5067875;28;20028;-63
2024/01/27 01:57:39;;;;;;;0.50;0.50;;;;;;;3.41;93.64;100880.56;5067683;28;20021;-63
2024/01/27 02:00:06;;;;;;;0.40;0.40;;;;;;;3.35;94.14;100868.41;5067774;28;20500;-63
2024/01/27 02:02:31;;;;;;;0.40;0.40;;;;;;;3.31;93.41;100879.41;5067487;28;20029;-63
2024/01/27 02:04:56;;;;;;;0.40;0.40;;;;;;;3.28;93.04;100886.13;5067392;28;20083;-63
2024/01/27 02:07:22;;;;;;;0.40;0.40;;;;;;;3.26;93.65;100892.94;5067594;28;20024;-63
2024/01/27 02:09:47;;;;;;;0.50;0.50;;;;;;;3.32;93.73;100898.25;5067606;28;20028;-63
2024/01/27 02:12:12;;;;;;;0.50;0.50;;;;;;;3.30;94.15;100902.47;5067462;28;20041;-63
2024/01/27 02:14:38;;;;;;;0.40;0.40;;;;;;;3.29;94.04;100904.16;5067372;28;20025;-62
2024/01/27 02:17:04;;;;;;;0.40;0.40;;;;;;;3.31;94.29;100910.22;5049211;28;20029;-63
2024/01/27 02:19:29;;;;;;;0.50;0.50;;;;;;;3.27;94.75;100907.50;5066457;28;20029;-63
2024/01/27 02:21:55;;;;;;;0.50;0.50;;;;;;;3.27;94.47;100913.53;5065799;28;20021;-63
2024/01/27 02:24:20;;;;;;;0.40;0.40;;;;;;;3.25;94.12;100906.59;5073416;22;20067;-65
2024/01/27 02:26:45;;;;;;;0.40;0.40;;;;;;;3.31;94.73;100915.34;5049335;28;20537;-65
2024/01/27 02:29:11;;;;;;;0.40;0.40;;;;;;;3.28;95.13;100917.81;5049268;28;20021;-65
2024/01/27 02:31:36;;;;;;;1.58;1.48;;;;;;;3.22;94.20;100922.78;5067190;28;20024;-64
2024/01/27 02:34:01;;;;;;;0.40;0.40;;;;;;;3.30;94.43;100921.31;5049070;28;20025;-65
2024/01/27 02:36:27;;;;;;;0.50;0.50;;;;;;;3.24;94.77;100927.94;5067311;28;20533;-64
2024/01/27 02:38:52;;;;;;;0.43;0.43;;;;;;;3.24;95.19;100930.50;5067095;28;20036;-65
2024/01/27 02:41:18;;;;;;;0.40;0.40;;;;;;;3.22;95.40;100933.03;5049065;28;20071;-65
2024/01/27 02:43:43;;;;;;;0.50;0.50;;;;;;;3.17;94.57;100937.16;5072404;22;20040;-63
2024/01/27 02:46:12;;;;;;;0.40;0.40;;;;;;;3.14;94.55;100945.63;5065972;28;20484;-63
2024/01/27 02:48:41;;;;;;;0.43;0.43;;;;;;;3.15;94.44;100952.50;5066805;28;20060;-63
2024/01/27 02:51:06;;;;;;;0.50;0.50;;;;;;;3.16;94.74;100954.25;5066386;28;20110;-63
2024/01/27 02:53:32;;;;;;;0.40;0.40;;;;;;;3.09;95.03;100952.31;5066788;28;20493;-63
2024/01/27 02:55:57;;;;;;;0.40;0.40;;;;;;;3.13;94.30;100950.72;5082544;22;20049;-63
2024/01/27 02:58:22;;;;;;;0.40;0.40;;;;;;;3.09;94.33;100954.88;5066660;28;20093;-63
2024/01/27 03:00:48;;;;;;;0.40;0.40;;;;;;;3.17;94.45;100968.81;5066377;28;20028;-62
2024/01/27 03:03:14;;;;;;;0.50;0.50;;;;;;;3.14;94.67;100966.16;5066734;28;20056;-63
2024/01/27 03:05:39;;;;;;;0.47;0.47;;;;;;;3.12;94.45;100962.66;5066544;28;20036;-63
2024/01/27 03:08:05;;;;;;;0.45;0.45;;;;;;;3.14;95.01;100962.72;5048504;28;20031;-63
2024/01/27 03:10:31;;;;;;;0.50;0.50;;;;;;;3.07;95.61;100962.53;5066561;28;20013;-63
2024/01/27 03:12:56;;;;;;;0.50;0.50;;;;;;;3.14;95.60;100980.66;5048657;28;20029;-63
2024/01/27 03:15:21;;;;;;;0.40;0.40;;;;;;;3.17;95.70;100983.34;5066534;28;20020;-63
2024/01/27 03:17:47;;;;;;;0.50;0.50;;;;;;;3.13;95.70;100978.94;5066193;28;20029;-63
2024/01/27 03:20:12;;;;;;;0.40;0.40;;;;;;;3.09;95.88;100977.97;5048319;28;20021;-62
2024/01/27 03:22:39;;;;;;;0.40;0.40;;;;;;;3.11;95.72;100984.03;5066089;28;20025;-64
2024/01/27 03:25:05;;;;;;;0.45;0.45;;;;;;;3.05;95.93;100984.69;5066252;28;20083;-63
2024/01/27 03:27:30;;;;;;;0.40;0.40;;;;;;;3.03;95.62;100986.34;5066323;28;20021;-64
2024/01/27 03:29:59;;;;;;;0.40;0.40;;;;;;;2.96;95.31;100985.28;5065869;28;20033;-63
2024/01/27 03:32:25;;;;;;;0.40;0.40;;;;;;;3.03;95.98;101006.00;5047372;28;20013;-63
2024/01/27 03:34:50;;;;;;;0.40;0.40;;;;;;;3.00;95.85;100998.19;5066029;28;20044;-63
2024/01/27 03:37:15;;;;;;;0.50;0.50;;;;;;;2.92;95.80;100998.84;5066045;28;20386;-63
2024/01/27 03:39:42;;;;;;;0.40;0.40;;;;;;;2.95;95.80;100996.38;5065505;28;20025;-63
2024/01/27 03:42:08;;;;;;;0.40;0.40;;;;;;;2.96;95.83;101007.47;5065895;28;20029;-63
2024/01/27 03:44:33;;;;;;;1.55;1.42;;;;;;;2.88;95.98;101014.91;5075109;22;20068;-64
2024/01/27 03:47:48;;;;;;;0.40;0.40;;;;;;;2.92;95.69;101024.47;5078401;23;20051;-64
2024/01/27 03:50:13;;;;;;;3.00;2.85;;;;;;;2.92;96.13;101018.47;5027864;28;20037;-65
2024/01/27 03:52:39;;;;;;;0.40;0.40;;;;;;;2.90;96.10;101020.09;5045784;28;20033;-65
2024/01/27 03:55:05;;;;;;;0.40;0.40;;;;;;;2.88;96.11;101017.50;5055842;23;20043;-64
2024/01/27 03:57:31;;;;;;;0.50;0.50;;;;;;;2.90;96.42;101020.09;5079364;23;20048;-64
2024/01/27 03:59:56;;;;;;;0.50;0.50;;;;;;;2.93;96.69;101026.22;5061406;23;20057;-71
2024/01/27 04:02:21;;;;;;;0.40;0.40;;;;;;;3.01;96.73;101035.84;5065579;28;20037;-71
2024/01/27 04:04:47;;;;;;;0.50;0.50;;;;;;;2.92;96.83;101037.31;5065371;28;20021;-71
2024/01/27 04:07:12;;;;;;;0.43;0.43;;;;;;;2.93;96.76;101039.03;5064281;28;20051;-71
2024/01/27 04:09:37;;;;;;;0.40;0.40;;;;;;;2.90;96.74;101032.94;5065426;28;20028;-71
2024/01/27 04:12:03;;;;;;;0.43;0.43;;;;;;;2.94;96.42;101040.78;5065301;28;20502;-71
2024/01/27 04:14:28;;;;;;;0.50;0.50;;;;;;;2.93;96.69;101044.16;5065287;28;20036;-71
2024/01/27 04:16:53;;;;;;;0.47;0.47;;;;;;;2.99;96.80;101060.59;5063996;28;20067;-71
2024/01/27 04:19:19;;;;;;;0.50;0.50;;;;;;;2.97;96.72;101043.44;5071783;23;20048;-63
2024/01/27 04:21:45;;;;;;;0.40;0.40;;;;;;;3.09;97.06;101062.63;5047246;28;20029;-64
2024/01/27 04:24:10;;;;;;;0.40;0.40;;;;;;;3.14;97.02;101048.25;5073926;23;20041;-64
2024/01/27 04:26:35;;;;;;;0.40;0.40;;;;;;;3.20;97.45;101070.69;5052116;23;20141;-63
2024/01/27 04:29:01;;;;;;;0.50;0.50;;;;;;;3.18;97.50;101062.94;5071336;23;20583;-65
2024/01/27 04:31:26;;;;;;;0.40;0.40;;;;;;;3.21;97.25;101055.31;5050237;23;20109;-64
2024/01/27 04:33:51;;;;;;;0.40;0.40;;;;;;;3.20;97.53;101056.16;5044733;28;20026;-64
2024/01/27 04:36:26;;;;;;;0.40;0.40;;;;;;;3.28;97.40;101068.34;5045116;28;20025;-64
2024/01/27 04:38:51;;;;;;;0.40;0.40;;;;;;;3.26;97.55;101067.44;5045051;28;20096;-64
2024/01/27 04:41:16;;;;;;;0.50;0.50;;;;;;;3.17;96.97;101068.91;5044748;28;20089;-64
2024/01/27 04:43:42;;;;;;;0.40;0.40;;;;;;;3.16;96.94;101072.28;5044849;28;20466;-64
2024/01/27 04:46:07;;;;;;;0.40;0.40;;;;;;;3.18;96.90;101064.66;5044707;28;20209;-64
2024/01/27 04:48:32;;;;;;;0.40;0.40;;;;;;;3.19;97.15;101063.81;5044868;28;20090;-64
2024/01/27 04:50:58;;;;;;;0.85;0.85;;;;;;;3.18;97.35;101073.19;5044600;28;20040;-64
2024/01/27 04:53:23;;;;;;;0.50;0.50;;;;;;;3.20;97.39;101078.38;5044845;28;20052;-64
2024/01/27 04:55:48;;;;;;;0.40;0.40;;;;;;;3.19;97.33;101074.06;5044904;28;20044;-64
2024/01/27 04:58:14;;;;;;;0.40;0.40;;;;;;;3.21;97.62;101080.13;5026951;28;20085;-64
2024/01/27 05:00:39;;;;;;;0.40;0.40;;;;;;;3.17;97.20;101084.28;5044607;28;20539;-64
2024/01/27 05:03:07;;;;;;;0.40;0.40;;;;;;;3.14;97.09;101089.31;5044805;28;20028;-64
2024/01/27 05:05:57;;;;;;;0.40;0.40;;;;;;;3.12;96.82;101102.91;5052826;23;20451;-65
2024/01/27 05:08:22;;;;;;;0.40;0.40;;;;;;;3.09;96.54;101095.97;5068707;23;20083;-65
2024/01/27 05:10:48;;;;;;;0.50;0.50;;;;;;;3.12;96.54;101106.34;5081874;22;20053;-65
2024/01/27 05:13:13;;;;;;;0.40;0.40;;;;;;;3.10;97.08;101101.16;5046809;28;20473;-65
2024/01/27 05:15:38;;;;;;;0.40;0.40;;;;;;;3.14;97.39;101099.59;5064421;28;20021;-65
2024/01/27 05:18:04;;;;;;;0.50;0.50;;;;;;;3.16;97.52;101099.63;5064617;28;20029;-65
2024/01/27 05:20:29;;;;;;;0.50;0.50;;;;;;;3.18;97.60;101100.56;5064335;28;20021;-65
2024/01/27 05:22:55;;;;;;;0.50;0.50;;;;;;;3.22;97.62;101108.41;5070600;23;20061;-65
2024/01/27 05:25:20;;;;;;;0.40;0.40;;;;;;;3.22;97.53;101110.97;5064324;28;20063;-65
2024/01/27 05:27:45;;;;;;;0.40;0.40;;;;;;;3.23;97.77;101114.41;5064289;28;20098;-65
2024/01/27 05:30:11;;;;;;;0.45;0.45;;;;;;;3.18;97.85;101115.97;5064728;28;20053;-65
2024/01/27 05:32:37;;;;;;;0.50;0.50;;;;;;;3.21;97.80;101123.75;5064345;28;20013;-64
2024/01/27 05:35:05;;;;;;;0.82;0.82;;;;;;;3.18;97.22;101116.81;5064441;28;20060;-65
2024/01/27 05:37:30;;;;;;;0.50;0.50;;;;;;;3.17;97.51;101122.78;5064363;28;20028;-65
2024/01/27 05:39:56;;;;;;;0.40;0.40;;;;;;;3.18;97.47;101124.50;5064442;28;20029;-65
2024/01/27 05:42:21;;;;;;;0.40;0.40;;;;;;;3.19;97.26;101128.84;5064313;28;20561;-65
2024/01/27 05:44:47;;;;;;;0.50;0.50;;;;;;;3.16;97.22;101133.88;5064401;28;20021;-65
2024/01/27 05:47:12;;;;;;;0.50;0.50;;;;;;;3.20;96.84;101150.22;5064229;28;20029;-65
2024/01/27 05:49:38;;;;;;;0.40;0.40;;;;;;;3.16;97.54;101145.81;5063901;28;20025;-65
2024/01/27 05:52:04;;;;;;;0.40;0.40;;;;;;;3.16;97.20;101154.41;5064128;28;20021;-64
2024/01/27 05:54:29;;;;;;;0.60;0.60;;;;;;;3.15;97.38;101154.31;5046033;28;20485;-65
2024/01/27 05:56:54;;;;;;;0.50;0.50;;;;;;;3.07;97.61;101141.22;5067800;28;20051;-65
2024/01/27 05:59:20;;;;;;;0.40;0.40;;;;;;;3.23;97.18;101147.75;5049901;28;20025;-65
2024/01/27 06:01:45;;;;;;;0.40;0.40;;;;;;;3.24;97.51;101158.91;5067717;28;20020;-65
2024/01/27 06:04:14;;;;;;;0.40;0.40;;;;;;;3.30;97.34;101157.44;5067918;28;20025;-65
2024/01/27 06:06:39;;;;;;;0.40;0.40;;;;;;;3.32;97.77;101167.75;5072535;23;20062;-64
2024/01/27 06:09:05;;;;;;;0.40;0.40;;;;;;;3.37;97.69;101162.75;5067861;28;20371;-65
2024/01/27 06:11:30;;;;;;;2.05;1.95;;;;;;;3.36;98.09;101164.44;5067779;28;20017;-65
2024/01/27 06:13:56;;;;;;;0.50;0.50;;;;;;;3.37;98.23;101163.63;5067479;28;20095;-65
2024/01/27 06:16:21;;;;;;;0.40;0.40;;;;;;;3.41;97.80;101174.88;5065253;23;20119;-65
2024/01/27 06:18:47;;;;;;;0.45;0.45;;;;;;;3.43;98.00;101175.81;5048649;23;20115;-68
2024/01/27 06:21:13;;;;;;;0.50;0.50;;;;;;;3.42;98.23;101174.91;5071935;23;20071;-64
2024/01/27 06:23:39;;;;;;;0.50;0.50;;;;;;;3.33;98.28;101166.91;5067858;28;20039;-64
2024/01/27 06:26:08;;;;;;;0.40;0.40;;;;;;;3.36;97.94;101177.28;5067197;22;20054;-64
2024/01/27 06:28:34;;;;;;;0.40;0.40;;;;;;;3.30;97.83;101185.66;5047339;28;20044;-65
2024/01/27 06:31:03;;;;;;;0.50;0.50;;;;;;;3.28;98.19;101179.59;5047223;28;20026;-64
2024/01/27 06:33:28;;;;;;;0.40;0.40;;;;;;;3.40;98.39;101188.53;5047346;28;20039;-64
2024/01/27 06:38:27;;;;;;;0.40;0.40;;;;;;;3.34;98.46;101186.63;5045379;28;20076;-64
2024/01/27 06:40:53;;;;;;;0.40;0.40;;;;;;;3.35;98.39;101193.53;5046784;28;20025;-64
2024/01/27 06:43:19;;;;;;;0.40;0.40;;;;;;;3.29;98.32;101201.88;5046897;28;20036;-64
2024/01/27 06:45:44;;;;;;;0.40;0.40;;;;;;;3.19;98.26;101195.56;5047239;28;20026;-64
2024/01/27 06:48:10;;;;;;;0.40;0.40;;;;;;;3.17;98.04;101197.19;5046769;28;20080;-64
2024/01/27 06:50:35;;;;;;;0.50;0.50;;;;;;;3.21;98.17;101203.31;5046751;28;20047;-64
2024/01/27 06:53:01;;;;;;;0.40;0.40;;;;;;;3.16;98.08;101199.72;5046734;28;20028;-64
2024/01/27 06:55:27;;;;;;;0.50;0.50;;;;;;;3.16;98.37;101198.03;5059322;23;20025;-63
2024/01/27 06:57:52;;;;;;;0.40;0.40;;;;;;;3.23;98.38;101211.91;5052551;23;20106;-65
2024/01/27 07:00:18;;;;;;;0.43;0.43;;;;;;;3.19;98.67;101213.53;5046505;28;20098;-64
2024/01/27 07:02:44;;;;;;;0.50;0.50;;;;;;;3.21;99.04;101219.56;5046616;28;20029;-64
2024/01/27 07:05:10;;;;;;;0.40;0.40;;;;;;;3.17;99.35;101212.59;5046606;28;20021;-64
2024/01/27 07:07:35;;;;;;;0.50;0.50;;;;;;;3.22;99.35;101220.44;5037550;23;20049;-64
2024/01/27 07:10:01;;;;;;;0.40;0.40;;;;;;;3.21;99.61;101224.69;5071973;23;20107;-64
2024/01/27 07:12:27;;;;;;;0.85;0.85;;;;;;;3.21;99.80;101227.25;5066490;28;20060;-64
2024/01/27 07:14:54;;;;;;;5.95;1.73;;;;;;;3.13;99.73;101205.59;5066267;28;20029;-64
2024/01/27 07:17:19;;;;;;;0.40;0.40;;;;;;;3.26;99.76;101224.84;5048492;28;20056;-63
2024/01/27 07:19:44;;;;;;;0.47;0.47;;;;;;;3.22;99.82;101229.03;5066134;28;20029;-63
2024/01/27 07:22:10;;;;;;;6.43;2.25;;;;;;;3.16;99.88;101209.97;5048607;28;20029;-64
2024/01/27 07:24:36;;;;;;;0.43;0.43;;;;;;;3.24;99.62;101223.06;5048308;28;20053;-64
2024/01/27 07:27:02;;;;;;;0.40;0.40;;;;;;;3.26;100.00;101231.72;5059403;23;20410;-64
2024/01/27 07:29:27;;;;;;;0.40;0.40;;;;;;;3.27;100.00;101239.47;5065930;28;20021;-65
2024/01/27 07:31:53;;;;;;;0.40;0.40;;;;;;;3.28;100.00;101241.19;5064176;28;20057;-65
2024/01/27 07:34:19;;;;;;;0.40;0.40;;;;;;;3.29;100.00;101242.06;5065707;28;20021;-65
2024/01/27 07:36:49;;;;;;;0.50;0.50;;;;;;;3.24;100.00;101243.59;5065986;28;20025;-65
2024/01/27 07:39:14;;;;;;;0.40;0.40;;;;;;;3.30;100.00;101248.94;5065311;28;20023;-65
2024/01/27 07:41:40;;;;;;;0.50;0.50;;;;;;;3.20;100.00;101227.22;5047532;28;20044;-65
2024/01/27 07:44:14;;;;;;;0.40;0.40;;;;;;;3.32;100.00;101253.31;5047943;28;20029;-65
2024/01/27 07:46:40;;;;;;;0.50;0.50;;;;;;;3.40;100.00;101261.31;5047857;28;20029;-65
2024/01/27 07:49:06;;;;;;;0.50;0.50;;;;;;;3.39;100.00;101253.50;5065613;28;20061;-64
2024/01/27 07:51:32;;;;;;;0.40;0.40;;;;;;;3.45;100.00;101258.88;5065663;28;20045;-64
2024/01/27 07:53:58;;;;;;;0.47;0.47;;;;;;;3.46;100.00;101258.94;5065480;28;20052;-65
2024/01/27 07:56:24;;;;;;;0.43;0.43;;;;;;;3.51;100.00;101279.63;5065660;28;20029;-66
2024/01/27 07:58:49;;;;;;;0.50;0.50;;;;;;;3.55;100.00;101265.19;5065438;28;20031;-65
2024/01/27 08:01:15;;;;;;;0.40;0.40;;;;;;;3.64;100.00;101277.50;5065584;28;20021;-65
2024/01/27 08:03:41;;;;;;;0.43;0.43;;;;;;;3.69;100.00;101279.38;5065665;28;20477;-65
2024/01/27 08:06:11;;;;;;;0.70;0.70;;;;;;;3.77;100.00;101271.09;5051916;23;20049;-64
2024/01/27 08:08:36;;;;;;;0.85;0.85;;;;;;;3.93;100.00;101273.31;5071233;23;20049;-64
2024/01/27 08:11:02;;;;;;;0.40;0.40;;;;;;;4.14;100.00;101280.00;5076345;23;20059;-64
2024/01/27 08:13:27;;;;;;;0.40;0.40;;;;;;;4.25;100.00;101279.47;5070055;23;20033;-65
2024/01/27 08:15:53;;;;;;;0.40;0.40;;;;;;;4.41;100.00;101279.13;5072707;22;20085;-64
2024/01/27 08:18:18;;;;;;;0.40;0.40;;;;;;;4.63;100.00;101282.38;5064950;28;20156;-65
2024/01/27 08:20:43;;;;;;;0.40;0.40;;;;;;;4.86;100.00;101287.31;5065020;28;20025;-65
2024/01/27 08:23:09;;;;;;;7.00;1.85;;;;;;;5.06;100.00;101298.16;5065453;28;20071;-65
2024/01/27 08:25:34;;;;;;;0.40;0.40;;;;;;;5.29;100.00;101304.81;5065444;28;20092;-64
2024/01/27 08:28:00;;;;;;;0.55;0.55;;;;;;;5.40;99.74;101312.84;5065287;28;20020;-64
2024/01/27 08:30:25;;;;;;;1.58;1.58;;;;;;;5.43;98.17;101320.66;5064916;28;20021;-64
2024/01/27 08:32:50;;;;;;;0.40;0.40;;;;;;;5.29;97.35;101325.41;5062751;22;20064;-63
2024/01/27 08:35:15;;;;;;;0.40;0.40;;;;;;;5.24;97.25;101324.41;5045259;28;20029;-63
2024/01/27 08:37:41;;;;;;;0.50;0.50;;;;;;;5.17;97.48;101328.50;5027220;28;20097;-64
2024/01/27 08:40:07;;;;;;;0.40;0.40;;;;;;;5.01;97.78;101319.47;5027388;28;20067;-64
2024/01/27 08:42:32;;;;;;;1.35;1.25;;;;;;;4.93;97.13;101317.56;5044833;28;20025;-64
2024/01/27 08:44:58;;;;;;;0.50;0.50;;;;;;;4.95;97.60;101321.03;5053269;23;20032;-65
2024/01/27 08:47:23;;;;;;;0.40;0.40;;;;;;;5.04;97.63;101327.28;5070940;23;20223;-67
2024/01/27 08:49:49;;;;;;;0.40;0.40;;;;;;;5.03;97.55;101323.81;5047102;28;20097;-66
2024/01/27 08:52:14;;;;;;;0.40;0.40;;;;;;;5.08;97.89;101329.97;5063007;28;20021;-66
2024/01/27 08:54:40;;;;;;;0.40;0.40;;;;;;;5.09;97.99;101330.88;5063866;28;20490;-67
2024/01/27 08:57:06;;;;;;;0.40;0.40;;;;;;;5.07;98.21;101324.78;5066768;23;20046;-65
2024/01/27 08:59:31;;;;;;;0.40;0.40;;;;;;;5.16;98.67;101335.34;5027045;28;20542;-65
2024/01/27 09:01:57;;;;;;;1.02;1.02;;;;;;;5.12;98.49;101342.94;5044753;28;20040;-63
2024/01/27 09:07:02;;;;;;;3.53;3.20;;;;;;;5.14;98.44;101347.34;5042909;28;20054;-63
2024/01/27 09:09:28;;;;;;;0.40;0.40;;;;;;;5.14;98.03;101339.59;5044323;28;20052;-63
2024/01/27 09:11:54;;;;;;;0.40;0.40;;;;;;;5.10;97.56;101340.31;5044819;28;20021;-62
2024/01/27 09:14:19;;;;;;;0.40;0.40;;;;;;;5.12;97.54;101342.94;5050583;23;20085;-62
2024/01/27 09:16:46;;;;;;;0.45;0.45;;;;;;;5.10;97.52;101342.91;5044681;28;20034;-63
2024/01/27 09:19:11;;;;;;;0.50;0.50;;;;;;;5.11;97.47;101351.50;5044688;28;20428;-63
2024/01/27 09:21:37;;;;;;;0.40;0.40;;;;;;;5.13;97.45;101355.84;5026478;28;20021;-63
2024/01/27 09:24:03;;;;;;;0.65;0.65;;;;;;;5.18;97.04;101353.41;5044800;28;20028;-64
2024/01/27 09:26:28;;;;;;;0.40;0.40;;;;;;;5.18;97.23;101359.44;5026911;28;20556;-61
2024/01/27 09:28:54;;;;;;;0.50;0.50;;;;;;;5.18;97.12;101351.72;5049766;23;20049;-63
2024/01/27 09:31:23;;;;;;;0.40;0.40;;;;;;;5.21;97.13;101372.41;5053890;22;20052;-66
2024/01/27 09:33:53;;;;;;;0.40;0.40;;;;;;;5.25;97.30;101364.78;5048222;28;20030;-65
2024/01/27 09:36:19;;;;;;;0.47;0.47;;;;;;;5.26;96.66;101364.81;5048243;28;20045;-66
2024/01/27 09:38:45;;;;;;;1.42;1.35;;;;;;;5.29;96.33;101374.31;5048103;28;20473;-69
2024/01/27 09:41:13;;;;;;;0.40;0.40;;;;;;;5.29;96.69;101372.63;5047754;28;20102;-66
2024/01/27 09:43:43;;;;;;;0.40;0.40;;;;;;;5.38;96.26;101374.63;5059437;23;20049;-63
2024/01/27 09:46:09;;;;;;;0.40;0.40;;;;;;;5.30;96.73;101368.38;5073892;23;20056;-66
2024/01/27 09:48:35;;;;;;;0.80;0.80;;;;;;;5.33;96.00;101368.44;5067884;28;20025;-67
2024/01/27 09:51:03;;;;;;;1.50;1.40;;;;;;;5.35;95.48;101377.09;5067634;28;20029;-66
2024/01/27 09:53:28;;;;;;;0.40;0.40;;;;;;;5.32;95.58;101385.59;5067867;28;20028;-67
2024/01/27 09:55:56;;;;;;;0.40;0.40;;;;;;;5.31;95.95;101390.69;5067791;28;20035;-66
2024/01/27 09:58:22;;;;;;;0.40;0.40;;;;;;;5.33;95.09;101396.78;5067702;28;20040;-67
2024/01/27 10:00:48;;;;;;;0.40;0.40;;;;;;;5.35;95.53;101392.56;5067983;28;20094;-65
2024/01/27 10:03:15;;;;;;;2.15;2.05;;;;;;;5.37;95.66;101395.19;5068118;28;20090;-65
2024/01/27 10:05:41;;;;;;;4.28;3.90;;;;;;;5.24;95.80;101376.75;5067789;28;20025;-66
2024/01/27 10:08:08;;;;;;;0.68;0.68;;;;;;;5.31;95.37;101382.97;5068073;28;20096;-65
2024/01/27 10:10:34;;;;;;;8.60;5.40;;;;;;;5.30;95.75;101378.66;5067607;28;20025;-66
2024/01/27 10:13:03;;;;;;;0.40;0.40;;;;;;;5.34;95.95;101383.06;5049558;28;20055;-66
2024/01/27 10:15:29;;;;;;;0.40;0.40;;;;;;;5.30;95.07;101383.81;5067776;28;20052;-66
2024/01/27 10:18:07;;;;;;;0.50;0.50;;;;;;;5.29;95.14;101392.34;5073245;23;20516;-62
2024/01/27 10:20:33;;;;;;;0.40;0.40;;;;;;;5.23;95.27;101384.44;5055830;23;20100;-65
2024/01/27 10:23:09;;;;;;;0.45;0.45;;;;;;;5.34;96.09;101395.94;5067363;28;20079;-64
2024/01/27 10:25:37;;;;;;;0.40;0.40;;;;;;;5.28;95.63;101391.50;5067637;28;20021;-64
2024/01/27 10:28:04;;;;;;;0.40;0.40;;;;;;;5.36;95.41;101395.97;5067445;28;20025;-65
2024/01/27 10:30:30;;;;;;;0.50;0.50;;;;;;;5.44;96.25;101399.66;5067371;28;20031;-64
2024/01/27 10:32:59;;;;;;;0.50;0.50;;;;;;;5.41;96.17;101394.44;5067461;28;20111;-63
2024/01/27 10:35:26;;;;;;;8.27;5.03;;;;;;;5.46;96.29;101400.59;5049084;28;20075;-63
2024/01/27 10:37:53;;;;;;;0.40;0.40;;;;;;;5.31;96.20;101381.28;5049356;28;20024;-64
2024/01/27 10:40:18;;;;;;;0.47;0.47;;;;;;;5.43;96.09;101401.34;5049056;28;20070;-63
2024/01/27 10:42:44;;;;;;;0.40;0.40;;;;;;;5.48;95.92;101406.63;5066894;28;20088;-63
2024/01/27 10:45:11;;;;;;;0.40;0.40;;;;;;;5.42;95.61;101402.19;5067202;28;20108;-64
2024/01/27 10:47:38;;;;;;;0.40;0.40;;;;;;;5.46;95.92;101406.59;5067198;28;20025;-64
2024/01/27 10:52:33;;;;;;;0.50;0.50;;;;;;;5.48;96.18;101404.06;5052136;23;20053;-67
2024/01/27 10:55:00;;;;;;;0.45;0.45;;;;;;;5.47;95.77;101407.47;5046835;28;20025;-67
2024/01/27 10:57:27;;;;;;;0.47;0.47;;;;;;;5.49;96.14;101410.97;5046853;28;20088;-67
2024/01/27 10:59:53;;;;;;;0.40;0.40;;;;;;;5.51;96.30;101413.59;5046875;28;20028;-66
2024/01/27 11:02:19;;;;;;;1.17;1.13;;;;;;;5.49;95.98;101413.56;5046992;28;20028;-66
2024/01/27 11:04:47;;;;;;;0.40;0.40;;;;;;;5.49;95.50;101428.13;5028639;28;20029;-67
2024/01/27 11:07:13;;;;;;;0.40;0.40;;;;;;;5.51;95.65;101426.47;5047018;28;20024;-66
2024/01/27 11:09:39;;;;;;;0.40;0.40;;;;;;;5.52;96.10;101426.53;5046521;28;20029;-67
2024/01/27 11:12:07;;;;;;;6.03;4.25;;;;;;;5.50;95.57;101435.00;5056959;22;20091;-64
2024/01/27 11:14:32;;;;;;;0.40;0.40;;;;;;;5.49;95.66;101430.69;5066882;28;20036;-64
2024/01/27 11:16:58;;;;;;;0.40;0.40;;;;;;;5.45;95.68;101430.63;5066576;28;20047;-62
2024/01/27 11:19:23;;;;;;;2.15;2.05;;;;;;;5.46;95.77;101436.66;5066572;28;20384;-62
2024/01/27 11:22:02;;;;;;;0.40;0.40;;;;;;;5.48;95.99;101432.41;5079444;22;20053;-69
2024/01/27 11:24:27;;;;;;;0.40;0.40;;;;;;;5.44;96.14;101417.69;5073218;22;20037;-64
2024/01/27 11:27:06;;;;;;;0.40;0.40;;;;;;;5.48;95.66;101428.97;5066860;28;20046;-63
2024/01/27 11:29:33;;;;;;;0.40;0.40;;;;;;;5.53;96.01;101437.69;5066190;28;20469;-63
2024/01/27 11:32:03;;;;;;;0.40;0.40;;;;;;;5.51;96.59;101435.06;5076957;22;21437;-63
2024/01/27 11:34:40;;;;;;;0.50;0.50;;;;;;;5.52;96.60;101434.25;5077418;22;20505;-63